Time;durP1;ratioP1;P1;durP2;ratioP2;P2;SDS_P1;SDS_P2;PMS_P1;PMS_P2;Temp;Humidity;BMP_temperature;BMP_pressure;BME280_temperature;BME280_humidity;BME280_pressure;Samples;Min_cycle;Max_cycle;Signal;HPM_P1;HPM_P2
2023/05/02 00:01:11;;;;;;;12.18;2.13;;;;;;;;;;5046293;28;20427;-76
2023/05/02 00:03:37;;;;;;;15.30;2.95;;;;;;;;;;5049932;28;20117;-78
2023/05/02 00:06:03;;;;;;;16.15;2.60;;;;;;;;;;5052579;28;20033;-77
2023/05/02 00:08:30;;;;;;;11.77;2.38;;;;;;;;;;5043038;28;20047;-77
2023/05/02 00:10:56;;;;;;;12.40;2.90;;;;;;;;;;5049924;28;20072;-77
2023/05/02 00:13:22;;;;;;;12.82;2.67;;;;;;;;;;5049602;28;20033;-77
2023/05/02 00:15:48;;;;;;;7.65;1.95;;;;;;;;;;5060425;28;20039;-77
2023/05/02 00:18:14;;;;;;;8.90;2.17;;;;;;;;;;5055918;28;20101;-77
2023/05/02 00:20:40;;;;;;;7.05;2.05;;;;;;;;;;5040365;28;20033;-77
2023/05/02 00:23:06;;;;;;;11.25;2.55;;;;;;;;;;5056801;28;20549;-76
2023/05/02 00:25:32;;;;;;;9.30;2.08;;;;;;;;;;5056876;28;20373;-76
2023/05/02 00:27:58;;;;;;;14.80;1.98;;;;;;;;;;5056017;28;20037;-76
2023/05/02 00:30:24;;;;;;;11.02;2.47;;;;;;;;;;5046541;28;20033;-77
2023/05/02 00:32:53;;;;;;;16.00;3.15;;;;;;;;;;5053461;28;20066;-77
2023/05/02 00:35:19;;;;;;;8.23;1.85;;;;;;;;;;5053626;28;20914;-76
2023/05/02 00:37:45;;;;;;;10.25;2.35;;;;;;;;;;5041872;28;20033;-77
2023/05/02 00:40:11;;;;;;;9.90;3.08;;;;;;;;;;5047123;28;20043;-77
2023/05/02 00:42:37;;;;;;;5.85;1.90;;;;;;;;;;5049779;28;20029;-76
2023/05/02 00:45:05;;;;;;;9.05;2.03;;;;;;;;;;5055451;28;20036;-77
2023/05/02 00:47:32;;;;;;;6.15;1.90;;;;;;;;;;5048421;28;20098;-76
2023/05/02 00:49:59;;;;;;;10.20;1.65;;;;;;;;;;5045432;28;20112;-77
2023/05/02 00:52:26;;;;;;;5.80;2.17;;;;;;;;;;5050667;28;20032;-77
2023/05/02 00:54:52;;;;;;;9.90;2.45;;;;;;;;;;5051253;28;20037;-76
2023/05/02 00:57:18;;;;;;;8.13;1.88;;;;;;;;;;5047319;28;20033;-76
2023/05/02 00:59:44;;;;;;;8.25;2.03;;;;;;;;;;5051304;28;20363;-77
2023/05/02 01:02:30;;;;;;;11.25;2.47;;;;;;;;;;5049744;28;20488;-77
2023/05/02 01:04:59;;;;;;;9.88;2.10;;;;;;;;;;5048367;28;20036;-76
2023/05/02 01:07:36;;;;;;;3.30;1.48;;;;;;;;;;5051914;28;20076;-77
2023/05/02 01:10:08;;;;;;;11.40;2.40;;;;;;;;;;5044916;28;20509;-77
2023/05/02 01:12:37;;;;;;;8.32;2.63;;;;;;;;;;5053360;28;20060;-77
2023/05/02 01:15:05;;;;;;;12.43;2.22;;;;;;;;;;5049572;28;20089;-77
2023/05/02 01:17:32;;;;;;;8.65;2.17;;;;;;;;;;5048643;28;20043;-77
2023/05/02 01:20:00;;;;;;;8.80;2.13;;;;;;;;;;5040956;28;20032;-77
2023/05/02 01:22:29;;;;;;;6.35;1.70;;;;;;;;;;5057029;28;20033;-77
2023/05/02 01:25:14;;;;;;;8.15;1.90;;;;;;;;;;5049437;28;20514;-76
2023/05/02 01:27:47;;;;;;;10.93;2.47;;;;;;;;;;5055432;28;20426;-76
2023/05/02 01:30:14;;;;;;;13.95;3.00;;;;;;;;;;5050567;28;20037;-77
2023/05/02 01:32:43;;;;;;;12.82;4.78;;;;;;;;;;5053018;28;20074;-77
2023/05/02 01:35:10;;;;;;;14.30;4.55;;;;;;;;;;5046979;28;20036;-77
2023/05/02 01:37:37;;;;;;;22.65;4.95;;;;;;;;;;5045866;28;20040;-77
2023/05/02 01:40:04;;;;;;;31.45;6.18;;;;;;;;;;5052794;28;20171;-77
2023/05/02 01:42:32;;;;;;;27.00;4.55;;;;;;;;;;5050151;28;20110;-77
2023/05/02 01:44:59;;;;;;;24.33;6.00;;;;;;;;;;5052255;28;20154;-76
2023/05/02 01:47:26;;;;;;;26.80;5.63;;;;;;;;;;5056030;28;20492;-77
2023/05/02 01:49:52;;;;;;;30.98;5.55;;;;;;;;;;5051425;28;20056;-76
2023/05/02 01:52:21;;;;;;;22.42;4.75;;;;;;;;;;5054157;28;20048;-77
2023/05/02 01:54:47;;;;;;;29.83;5.80;;;;;;;;;;5047792;28;20029;-77
2023/05/02 01:57:15;;;;;;;19.20;4.55;;;;;;;;;;5041241;28;20131;-77
2023/05/02 01:59:43;;;;;;;26.10;4.65;;;;;;;;;;5054899;28;20029;-76
2023/05/02 02:02:10;;;;;;;31.60;7.18;;;;;;;;;;5045078;28;20108;-76
2023/05/02 02:04:37;;;;;;;22.52;3.83;;;;;;;;;;5048537;28;20041;-76
2023/05/02 02:07:08;;;;;;;17.85;3.90;;;;;;;;;;5053394;28;20120;-76
2023/05/02 02:09:34;;;;;;;26.02;4.93;;;;;;;;;;5053631;28;20056;-76
2023/05/02 02:12:17;;;;;;;27.48;5.68;;;;;;;;;;5042051;28;20021;-76
2023/05/02 02:14:47;;;;;;;29.38;5.88;;;;;;;;;;5049685;28;20036;-76
2023/05/02 02:17:40;;;;;;;26.45;5.65;;;;;;;;;;5045514;28;20139;-76
2023/05/02 02:20:08;;;;;;;33.80;5.70;;;;;;;;;;5048682;28;20033;-76
2023/05/02 02:22:36;;;;;;;26.23;4.97;;;;;;;;;;5047849;28;20029;-76
2023/05/02 02:25:03;;;;;;;31.95;5.65;;;;;;;;;;5053043;28;20091;-76
2023/05/02 02:27:29;;;;;;;25.17;4.55;;;;;;;;;;5040961;28;20044;-76
2023/05/02 02:29:55;;;;;;;35.28;5.50;;;;;;;;;;5053197;28;20024;-76
2023/05/02 02:32:21;;;;;;;33.25;6.35;;;;;;;;;;5048796;28;20142;-76
2023/05/02 02:34:47;;;;;;;27.98;5.57;;;;;;;;;;5055794;28;20051;-76
2023/05/02 02:37:23;;;;;;;34.33;5.80;;;;;;;;;;5040946;28;20029;-76
2023/05/02 02:40:04;;;;;;;21.65;4.82;;;;;;;;;;5055945;28;20041;-76
2023/05/02 02:42:35;;;;;;;25.92;5.03;;;;;;;;;;5048230;28;20033;-77
2023/05/02 02:45:01;;;;;;;30.95;5.32;;;;;;;;;;5056729;28;20028;-76
2023/05/02 02:47:31;;;;;;;28.83;4.63;;;;;;;;;;5047008;28;20045;-76
2023/05/02 02:50:09;;;;;;;23.08;3.88;;;;;;;;;;5050991;28;20025;-75
2023/05/02 02:52:50;;;;;;;26.38;4.32;;;;;;;;;;5049170;28;20448;-76
2023/05/02 02:55:37;;;;;;;24.92;4.70;;;;;;;;;;5040528;28;20021;-76
2023/05/02 02:58:18;;;;;;;19.15;4.35;;;;;;;;;;5043962;28;20051;-76
2023/05/02 03:00:44;;;;;;;17.50;4.20;;;;;;;;;;5040803;28;20374;-76
2023/05/02 03:03:12;;;;;;;25.98;4.18;;;;;;;;;;5043643;28;20466;-76
2023/05/02 03:05:38;;;;;;;27.08;4.22;;;;;;;;;;5051583;28;20037;-77
2023/05/02 03:08:04;;;;;;;33.17;5.20;;;;;;;;;;5047229;28;20028;-77
2023/05/02 03:10:32;;;;;;;18.85;3.80;;;;;;;;;;5051538;28;20067;-77
2023/05/02 03:12:58;;;;;;;22.70;4.57;;;;;;;;;;5052391;28;20496;-77
2023/05/02 03:15:30;;;;;;;21.10;3.92;;;;;;;;;;5051653;28;20443;-76
2023/05/02 03:17:56;;;;;;;19.15;3.95;;;;;;;;;;5049252;28;20020;-75
2023/05/02 03:20:22;;;;;;;25.67;4.05;;;;;;;;;;5043692;28;20091;-76
2023/05/02 03:22:48;;;;;;;16.90;4.38;;;;;;;;;;5047688;28;20041;-76
2023/05/02 03:25:14;;;;;;;24.73;4.05;;;;;;;;;;5053189;28;20044;-76
2023/05/02 03:27:40;;;;;;;22.67;3.67;;;;;;;;;;5050320;28;20082;-76
2023/05/02 03:30:07;;;;;;;14.57;3.10;;;;;;;;;;5053038;28;20493;-77
2023/05/02 03:32:33;;;;;;;24.08;4.65;;;;;;;;;;5047919;28;20498;-77
2023/05/02 03:34:59;;;;;;;20.52;3.33;;;;;;;;;;5048890;28;20090;-76
2023/05/02 03:37:25;;;;;;;15.23;3.30;;;;;;;;;;5049252;28;20086;-76
2023/05/02 03:39:51;;;;;;;12.02;3.00;;;;;;;;;;5051798;28;20033;-76
2023/05/02 03:42:17;;;;;;;17.05;3.45;;;;;;;;;;5044895;28;20029;-79
2023/05/02 03:44:43;;;;;;;12.23;2.88;;;;;;;;;;5040843;28;20032;-83
2023/05/02 03:47:09;;;;;;;12.63;2.60;;;;;;;;;;5047739;28;20505;-80
2023/05/02 03:49:35;;;;;;;11.23;2.35;;;;;;;;;;5042938;28;20021;-81
2023/05/02 03:52:01;;;;;;;16.45;4.13;;;;;;;;;;5045629;28;20036;-78
2023/05/02 03:54:27;;;;;;;16.60;4.65;;;;;;;;;;5053970;28;20028;-80
2023/05/02 03:56:54;;;;;;;17.88;3.17;;;;;;;;;;5045007;28;20047;-79
2023/05/02 03:59:20;;;;;;;13.65;2.28;;;;;;;;;;5046580;28;20033;-77
2023/05/02 04:01:51;;;;;;;19.52;2.72;;;;;;;;;;5051580;28;20424;-78
2023/05/02 04:04:17;;;;;;;11.15;2.10;;;;;;;;;;5050460;28;20036;-77
2023/05/02 04:06:43;;;;;;;13.50;2.40;;;;;;;;;;5050920;28;20050;-77
2023/05/02 04:09:09;;;;;;;16.55;2.25;;;;;;;;;;5043132;28;20116;-78
2023/05/02 04:11:35;;;;;;;16.02;2.92;;;;;;;;;;5051144;28;20115;-79
2023/05/02 04:14:02;;;;;;;15.90;2.00;;;;;;;;;;5043358;28;20090;-77
2023/05/02 04:16:28;;;;;;;13.57;2.90;;;;;;;;;;5028445;28;20041;-77
2023/05/02 04:18:54;;;;;;;9.68;2.70;;;;;;;;;;5046448;28;20112;-77
2023/05/02 04:21:20;;;;;;;11.73;2.75;;;;;;;;;;5044028;28;20116;-78
2023/05/02 04:23:46;;;;;;;13.25;3.25;;;;;;;;;;5047336;28;20553;-77
2023/05/02 04:26:12;;;;;;;9.30;2.85;;;;;;;;;;5044381;28;20103;-78
2023/05/02 04:28:38;;;;;;;7.78;2.00;;;;;;;;;;5039603;28;20447;-79
2023/05/02 04:31:04;;;;;;;7.55;1.25;;;;;;;;;;5042705;28;20065;-77
2023/05/02 04:33:30;;;;;;;6.75;1.70;;;;;;;;;;5046014;28;20037;-77
2023/05/02 04:35:56;;;;;;;9.23;2.15;;;;;;;;;;5029446;28;20052;-77
2023/05/02 04:38:23;;;;;;;6.90;1.55;;;;;;;;;;5069115;28;20032;-79
2023/05/02 04:40:52;;;;;;;13.30;1.77;;;;;;;;;;5047382;28;20033;-77
2023/05/02 04:43:18;;;;;;;20.13;3.65;;;;;;;;;;5037313;28;20061;-76
2023/05/02 04:45:44;;;;;;;10.85;1.70;;;;;;;;;;5041594;28;20143;-72
2023/05/02 04:48:10;;;;;;;5.35;1.35;;;;;;;;;;5045342;28;20132;-75
2023/05/02 04:50:36;;;;;;;7.78;2.03;;;;;;;;;;5039854;28;20470;-77
2023/05/02 04:53:02;;;;;;;6.28;1.35;;;;;;;;;;5044038;28;20029;-76
2023/05/02 04:55:29;;;;;;;7.07;1.50;;;;;;;;;;5036989;28;20041;-77
2023/05/02 04:57:55;;;;;;;5.38;1.45;;;;;;;;;;5054134;28;20397;-77
2023/05/02 05:00:21;;;;;;;8.18;1.20;;;;;;;;;;5058199;28;20033;-78
2023/05/02 05:02:47;;;;;;;8.52;1.42;;;;;;;;;;5044065;28;20053;-77
2023/05/02 05:05:13;;;;;;;8.25;1.70;;;;;;;;;;5035964;28;20068;-78
2023/05/02 05:07:39;;;;;;;8.05;1.98;;;;;;;;;;5044089;28;20040;-76
2023/05/02 05:10:07;;;;;;;5.15;1.50;;;;;;;;;;5045675;28;20431;-80
2023/05/02 05:12:33;;;;;;;9.85;2.00;;;;;;;;;;5046807;28;20029;-77
2023/05/02 05:14:59;;;;;;;10.65;3.08;;;;;;;;;;5044375;28;20512;-79
2023/05/02 05:17:27;;;;;;;7.78;2.53;;;;;;;;;;5040582;28;20090;-79
2023/05/02 05:19:53;;;;;;;14.40;2.28;;;;;;;;;;5049012;28;20029;-77
2023/05/02 05:22:20;;;;;;;12.93;2.58;;;;;;;;;;5050140;28;20433;-76
2023/05/02 05:24:53;;;;;;;12.98;2.50;;;;;;;;;;5036620;28;20030;-81
2023/05/02 05:27:19;;;;;;;17.25;4.57;;;;;;;;;;5046573;28;20044;-81
2023/05/02 05:29:45;;;;;;;13.30;2.30;;;;;;;;;;5047605;28;20057;-78
2023/05/02 05:32:11;;;;;;;12.48;1.77;;;;;;;;;;5045185;28;20028;-78
2023/05/02 05:34:37;;;;;;;16.77;3.45;;;;;;;;;;5048332;28;20488;-79
2023/05/02 05:37:04;;;;;;;7.03;1.90;;;;;;;;;;5049472;28;20048;-80
2023/05/02 05:39:30;;;;;;;8.98;2.08;;;;;;;;;;5052219;28;20120;-80
2023/05/02 05:41:57;;;;;;;11.18;2.95;;;;;;;;;;5048624;28;20036;-80
2023/05/02 05:44:24;;;;;;;10.70;2.40;;;;;;;;;;5049218;28;20104;-80
2023/05/02 05:46:50;;;;;;;15.40;2.40;;;;;;;;;;5047127;28;20050;-80
2023/05/02 05:49:16;;;;;;;15.82;2.30;;;;;;;;;;5049111;28;20033;-80
2023/05/02 05:51:42;;;;;;;11.55;2.33;;;;;;;;;;5047902;28;20032;-80
2023/05/02 05:54:08;;;;;;;19.10;1.92;;;;;;;;;;5030303;28;20061;-80
2023/05/02 05:56:34;;;;;;;14.32;2.65;;;;;;;;;;5034375;28;20082;-80
2023/05/02 05:59:00;;;;;;;11.35;2.33;;;;;;;;;;5048250;28;20208;-81
2023/05/02 06:01:26;;;;;;;12.23;2.25;;;;;;;;;;5042600;28;20128;-80
2023/05/02 06:03:52;;;;;;;10.80;2.50;;;;;;;;;;5054395;28;20436;-80
2023/05/02 06:06:18;;;;;;;12.02;1.88;;;;;;;;;;5050673;28;20047;-81
2023/05/02 06:08:44;;;;;;;17.15;4.32;;;;;;;;;;5054882;28;20039;-80
2023/05/02 06:11:10;;;;;;;9.98;2.05;;;;;;;;;;5059462;28;20033;-81
2023/05/02 06:13:37;;;;;;;6.25;2.08;;;;;;;;;;5043244;28;20032;-81
2023/05/02 06:16:05;;;;;;;13.50;3.40;;;;;;;;;;5054962;28;20485;-80
2023/05/02 06:18:31;;;;;;;20.52;2.58;;;;;;;;;;5037792;28;20037;-80
2023/05/02 06:21:03;;;;;;;13.90;2.20;;;;;;;;;;5045961;28;20087;-80
2023/05/02 06:23:29;;;;;;;13.83;2.40;;;;;;;;;;5053020;28;20111;-80
2023/05/02 06:25:58;;;;;;;11.90;3.05;;;;;;;;;;5050349;28;22473;-80
2023/05/02 06:28:24;;;;;;;5.45;1.80;;;;;;;;;;5041214;28;20547;-80
2023/05/02 06:31:04;;;;;;;9.65;1.65;;;;;;;;;;5042980;28;20461;-81
2023/05/02 06:33:31;;;;;;;14.25;2.67;;;;;;;;;;5053504;28;20370;-81
2023/05/02 06:35:57;;;;;;;15.65;2.13;;;;;;;;;;5042646;28;20489;-80
2023/05/02 06:38:23;;;;;;;17.02;2.67;;;;;;;;;;5049857;28;20033;-80
2023/05/02 06:40:50;;;;;;;12.90;2.50;;;;;;;;;;5045983;28;20389;-80
2023/05/02 06:43:16;;;;;;;10.35;1.73;;;;;;;;;;5053251;28;20080;-80
2023/05/02 06:45:42;;;;;;;9.30;2.22;;;;;;;;;;5049156;28;20072;-81
2023/05/02 06:48:08;;;;;;;7.70;1.67;;;;;;;;;;5046385;28;20066;-81
2023/05/02 06:50:35;;;;;;;8.30;1.80;;;;;;;;;;5052919;28;20029;-80
2023/05/02 06:53:01;;;;;;;12.07;2.45;;;;;;;;;;5052772;28;20371;-80
2023/05/02 06:55:27;;;;;;;12.77;2.40;;;;;;;;;;5050988;28;20114;-81
2023/05/02 06:57:54;;;;;;;7.70;1.90;;;;;;;;;;5049282;28;20389;-81
2023/05/02 07:00:20;;;;;;;12.48;2.78;;;;;;;;;;5050178;28;20029;-81
2023/05/02 07:02:46;;;;;;;17.30;2.60;;;;;;;;;;5050765;28;20064;-81
2023/05/02 07:05:14;;;;;;;7.32;2.22;;;;;;;;;;5073632;28;20576;-81
2023/05/02 07:07:41;;;;;;;10.52;1.63;;;;;;;;;;5063051;28;20056;-80
2023/05/02 07:10:07;;;;;;;8.32;1.83;;;;;;;;;;5073993;28;20029;-81
2023/05/02 07:12:33;;;;;;;10.25;2.10;;;;;;;;;;5049213;28;20048;-81
2023/05/02 07:14:59;;;;;;;10.65;2.38;;;;;;;;;;5048475;28;20036;-80
2023/05/02 07:17:25;;;;;;;10.65;2.55;;;;;;;;;;5051064;28;20033;-80
2023/05/02 07:19:52;;;;;;;12.15;3.08;;;;;;;;;;5064102;28;20489;-84
2023/05/02 07:22:18;;;;;;;10.93;2.22;;;;;;;;;;5044569;28;20076;-89
2023/05/02 07:24:44;;;;;;;11.68;2.78;;;;;;;;;;5060129;28;20793;-85
2023/05/02 07:27:11;;;;;;;14.73;3.05;;;;;;;;;;5050355;28;20563;-84
2023/05/02 07:29:37;;;;;;;12.77;2.17;;;;;;;;;;5047876;28;20038;-87
2023/05/02 07:32:03;;;;;;;10.32;2.35;;;;;;;;;;5045887;28;20022;-85
2023/05/02 07:34:29;;;;;;;9.18;2.65;;;;;;;;;;5054233;28;20090;-84
2023/05/02 07:36:56;;;;;;;16.80;2.88;;;;;;;;;;5054553;28;20389;-85
2023/05/02 07:39:22;;;;;;;17.13;2.35;;;;;;;;;;5045040;28;20031;-76
2023/05/02 07:41:55;;;;;;;9.70;2.50;;;;;;;;;;5046731;28;20041;-81
2023/05/02 07:44:21;;;;;;;5.35;2.10;;;;;;;;;;5053414;28;20040;-80
2023/05/02 07:46:47;;;;;;;9.75;2.35;;;;;;;;;;5050916;28;20053;-79
2023/05/02 07:49:13;;;;;;;14.27;3.90;;;;;;;;;;5051726;28;20037;-82
2023/05/02 07:51:39;;;;;;;6.72;2.00;;;;;;;;;;5043711;28;20025;-82
2023/05/02 07:54:18;;;;;;;11.52;2.42;;;;;;;;;;5044998;28;20036;-81
2023/05/02 07:56:44;;;;;;;12.05;3.33;;;;;;;;;;5049863;28;20061;-87
2023/05/02 07:59:10;;;;;;;7.55;1.90;;;;;;;;;;5046731;28;20037;-84
2023/05/02 08:01:37;;;;;;;14.95;2.45;;;;;;;;;;5043303;28;20064;-83
2023/05/02 08:04:03;;;;;;;10.30;2.28;;;;;;;;;;5031716;28;20021;-82
2023/05/02 08:06:29;;;;;;;10.05;2.75;;;;;;;;;;5053041;28;20502;-82
2023/05/02 08:08:56;;;;;;;7.18;3.55;;;;;;;;;;5047371;28;20036;-83
2023/05/02 08:11:24;;;;;;;8.35;2.50;;;;;;;;;;5047672;28;20033;-84
2023/05/02 08:13:53;;;;;;;14.32;2.08;;;;;;;;;;5050516;28;20033;-85
2023/05/02 08:16:19;;;;;;;10.15;2.60;;;;;;;;;;5048916;28;20040;-84
2023/05/02 08:18:45;;;;;;;7.13;1.98;;;;;;;;;;5039610;28;20029;-82
2023/05/02 08:21:11;;;;;;;9.95;1.70;;;;;;;;;;5059646;28;20025;-82
2023/05/02 08:23:38;;;;;;;8.02;1.60;;;;;;;;;;5049846;28;20036;-82
2023/05/02 08:26:04;;;;;;;9.10;2.13;;;;;;;;;;5046153;28;20033;-82
2023/05/02 08:28:30;;;;;;;13.20;3.70;;;;;;;;;;5047838;28;20025;-83
2023/05/02 08:30:56;;;;;;;4.72;1.80;;;;;;;;;;5041479;28;21176;-82
2023/05/02 08:33:25;;;;;;;14.55;1.92;;;;;;;;;;5047384;28;20013;-85
2023/05/02 08:35:53;;;;;;;6.25;1.60;;;;;;;;;;5047768;28;20029;-85
2023/05/02 08:38:19;;;;;;;16.33;5.53;;;;;;;;;;5045455;28;20059;-86
2023/05/02 08:40:45;;;;;;;12.45;2.58;;;;;;;;;;5048069;28;20057;-80
2023/05/02 08:43:13;;;;;;;6.43;2.55;;;;;;;;;;5050696;28;20032;-83
2023/05/02 08:45:40;;;;;;;12.10;2.38;;;;;;;;;;5045921;28;20306;-82
2023/05/02 08:48:09;;;;;;;5.78;1.30;;;;;;;;;;5047192;28;20056;-83
2023/05/02 08:50:47;;;;;;;5.68;1.50;;;;;;;;;;5048356;28;20021;-82
2023/05/02 08:53:13;;;;;;;9.00;2.05;;;;;;;;;;5037301;28;20028;-84
2023/05/02 08:55:40;;;;;;;7.00;1.40;;;;;;;;;;5040703;28;20076;-83
2023/05/02 08:58:07;;;;;;;7.38;1.70;;;;;;;;;;5037408;28;20512;-84
2023/05/02 09:00:36;;;;;;;8.15;1.60;;;;;;;;;;5042872;28;20045;-82
2023/05/02 09:03:08;;;;;;;6.13;1.77;;;;;;;;;;5033972;28;20047;-83
2023/05/02 09:05:41;;;;;;;10.13;1.85;;;;;;;;;;5036947;28;20103;-82
2023/05/02 09:08:07;;;;;;;7.22;1.75;;;;;;;;;;5036561;28;20465;-81
2023/05/02 09:10:36;;;;;;;5.72;1.63;;;;;;;;;;5048027;28;20033;-81
2023/05/02 09:13:22;;;;;;;6.70;1.85;;;;;;;;;;5040888;28;20568;-82
2023/05/02 09:15:58;;;;;;;13.32;4.55;;;;;;;;;;5046666;28;20055;-83
2023/05/02 09:18:25;;;;;;;5.32;1.45;;;;;;;;;;5045117;28;20091;-83
2023/05/02 09:20:51;;;;;;;6.78;1.23;;;;;;;;;;5044179;28;20037;-83
2023/05/02 09:23:17;;;;;;;8.43;1.50;;;;;;;;;;5043738;28;20086;-84
2023/05/02 09:25:43;;;;;;;9.95;1.45;;;;;;;;;;5043085;28;20529;-83
2023/05/02 09:28:09;;;;;;;10.85;1.30;;;;;;;;;;5042485;28;20029;-82
2023/05/02 09:30:35;;;;;;;4.45;1.35;;;;;;;;;;5043250;28;20032;-82
2023/05/02 09:33:02;;;;;;;9.80;3.63;;;;;;;;;;5037975;28;20354;-80
2023/05/02 09:35:28;;;;;;;5.82;1.13;;;;;;;;;;5051979;28;20032;-82
2023/05/02 09:37:55;;;;;;;3.88;1.30;;;;;;;;;;5044573;28;20025;-84
2023/05/02 09:40:22;;;;;;;2.63;0.80;;;;;;;;;;5047182;28;20063;-81
2023/05/02 09:42:48;;;;;;;4.55;0.85;;;;;;;;;;5043632;28;20321;-82
2023/05/02 09:45:24;;;;;;;4.53;0.90;;;;;;;;;;5048889;28;20041;-81
2023/05/02 09:47:53;;;;;;;8.98;1.00;;;;;;;;;;5043373;28;20060;-82
2023/05/02 09:50:32;;;;;;;2.65;0.90;;;;;;;;;;5048308;28;20037;-81
2023/05/02 09:53:05;;;;;;;2.95;0.85;;;;;;;;;;5047595;28;20029;-81
2023/05/02 09:55:32;;;;;;;1.95;0.73;;;;;;;;;;5049524;28;20063;-81
2023/05/02 09:57:58;;;;;;;5.18;0.82;;;;;;;;;;5046521;28;20021;-81
2023/05/02 10:00:57;;;;;;;5.10;0.77;;;;;;;;;;5048485;28;20084;-81
2023/05/02 10:03:25;;;;;;;4.80;1.58;;;;;;;;;;4981187;28;20206;-82
2023/05/02 10:05:53;;;;;;;6.63;1.17;;;;;;;;;;4990697;28;20190;-80
2023/05/02 10:08:20;;;;;;;6.10;1.20;;;;;;;;;;5041698;28;20040;-83
2023/05/02 10:10:53;;;;;;;5.95;2.13;;;;;;;;;;5043718;28;20029;-83
2023/05/02 10:13:21;;;;;;;4.63;1.48;;;;;;;;;;5043766;28;20168;-81
2023/05/02 10:15:48;;;;;;;4.95;1.25;;;;;;;;;;5044563;28;20037;-84
2023/05/02 10:18:22;;;;;;;7.43;1.23;;;;;;;;;;5046470;28;20482;-83
2023/05/02 10:20:54;;;;;;;4.68;0.77;;;;;;;;;;5035090;28;20124;-81
2023/05/02 10:23:20;;;;;;;2.50;1.00;;;;;;;;;;5048119;28;20355;-81
2023/05/02 10:25:47;;;;;;;5.15;1.52;;;;;;;;;;5040753;28;20045;-80
2023/05/02 10:28:14;;;;;;;4.63;1.23;;;;;;;;;;5044124;28;20025;-81
2023/05/02 10:30:40;;;;;;;2.67;0.90;;;;;;;;;;5045474;28;20036;-81
2023/05/02 10:33:12;;;;;;;7.60;1.33;;;;;;;;;;5050887;28;20552;-81
2023/05/02 10:35:39;;;;;;;9.23;1.73;;;;;;;;;;5051382;28;20032;-82
2023/05/02 10:38:05;;;;;;;2.53;1.20;;;;;;;;;;5034781;28;20333;-84
2023/05/02 10:40:31;;;;;;;4.55;1.45;;;;;;;;;;5045255;28;20033;-78
2023/05/02 10:43:01;;;;;;;5.22;1.98;;;;;;;;;;5046479;28;20509;-78
2023/05/02 10:45:30;;;;;;;4.57;1.00;;;;;;;;;;5054679;28;20045;-79
2023/05/02 10:48:14;;;;;;;4.90;1.40;;;;;;;;;;5046824;28;20040;-78
2023/05/02 10:50:50;;;;;;;5.35;1.08;;;;;;;;;;5053628;28;20045;-77
2023/05/02 10:53:26;;;;;;;4.82;1.55;;;;;;;;;;5057320;28;20134;-78
2023/05/02 10:56:07;;;;;;;2.88;0.85;;;;;;;;;;5048194;28;20041;-78
2023/05/02 10:58:33;;;;;;;3.90;0.93;;;;;;;;;;5050364;28;20034;-83
2023/05/02 11:01:18;;;;;;;5.78;1.00;;;;;;;;;;5052189;28;20335;-80
2023/05/02 11:03:55;;;;;;;4.95;1.58;;;;;;;;;;5042498;28;20079;-81
2023/05/02 11:06:21;;;;;;;6.70;2.03;;;;;;;;;;5043959;28;20543;-82
2023/05/02 11:08:47;;;;;;;8.38;2.05;;;;;;;;;;5046036;28;20025;-80
2023/05/02 11:11:31;;;;;;;2.75;0.93;;;;;;;;;;5044280;28;20392;-82
2023/05/02 11:13:57;;;;;;;4.38;1.23;;;;;;;;;;5044669;28;20052;-82
2023/05/02 11:16:23;;;;;;;9.23;1.95;;;;;;;;;;5043711;28;20061;-82
2023/05/02 11:18:59;;;;;;;7.10;1.65;;;;;;;;;;5046280;28;20120;-82
2023/05/02 11:21:28;;;;;;;6.97;1.75;;;;;;;;;;5042301;28;20028;-77
2023/05/02 11:24:13;;;;;;;3.97;1.23;;;;;;;;;;5044983;28;20038;-79
2023/05/02 11:26:39;;;;;;;6.55;1.83;;;;;;;;;;5050889;28;20429;-80
2023/05/02 11:29:05;;;;;;;6.38;1.30;;;;;;;;;;5049982;28;21571;-81
2023/05/02 11:31:51;;;;;;;7.82;1.42;;;;;;;;;;5052525;28;20033;-82
2023/05/02 11:34:18;;;;;;;5.53;1.58;;;;;;;;;;5042082;28;20112;-75
2023/05/02 11:36:45;;;;;;;5.03;1.35;;;;;;;;;;5049651;28;20041;-77
2023/05/02 11:39:18;;;;;;;9.73;1.30;;;;;;;;;;5048199;28;20074;-76
2023/05/02 11:41:47;;;;;;;4.78;1.10;;;;;;;;;;5049316;28;20013;-77
2023/05/02 11:44:13;;;;;;;6.13;1.23;;;;;;;;;;5048998;28;20033;-76
2023/05/02 11:46:40;;;;;;;9.32;1.27;;;;;;;;;;5048936;28;20306;-77
2023/05/02 11:49:06;;;;;;;5.20;0.80;;;;;;;;;;5049464;28;20123;-77
2023/05/02 11:51:34;;;;;;;4.25;1.00;;;;;;;;;;5050697;28;20039;-77
2023/05/02 11:54:02;;;;;;;3.00;0.88;;;;;;;;;;5042785;28;20021;-77
2023/05/02 11:56:28;;;;;;;4.10;1.00;;;;;;;;;;5049361;28;20237;-77
2023/05/02 11:59:02;;;;;;;6.07;1.02;;;;;;;;;;5050556;28;20484;-76
2023/05/02 12:01:29;;;;;;;7.55;1.73;;;;;;;;;;5043723;28;20032;-77
2023/05/02 12:04:06;;;;;;;3.33;0.90;;;;;;;;;;5045104;28;20022;-77
2023/05/02 12:06:32;;;;;;;9.23;1.42;;;;;;;;;;5049103;28;20033;-77
2023/05/02 12:09:07;;;;;;;5.60;2.10;;;;;;;;;;5050147;28;20576;-77
2023/05/02 12:11:33;;;;;;;3.50;0.98;;;;;;;;;;5049147;28;20036;-76
2023/05/02 12:14:03;;;;;;;5.80;1.42;;;;;;;;;;5043534;28;20025;-77
2023/05/02 12:16:29;;;;;;;8.20;1.10;;;;;;;;;;5047201;28;20037;-76
2023/05/02 12:18:58;;;;;;;3.42;0.90;;;;;;;;;;5043818;28;20029;-76
2023/05/02 12:21:24;;;;;;;2.88;0.80;;;;;;;;;;5037426;28;20394;-76
2023/05/02 12:23:53;;;;;;;3.95;1.15;;;;;;;;;;5044886;28;20038;-76
2023/05/02 12:26:31;;;;;;;3.65;1.00;;;;;;;;;;5031050;28;20504;-76
2023/05/02 12:28:57;;;;;;;2.50;0.70;;;;;;;;;;5048412;28;20090;-76
2023/05/02 12:31:30;;;;;;;7.38;0.90;;;;;;;;;;5047114;28;20032;-77
2023/05/02 12:33:58;;;;;;;4.32;1.00;;;;;;;;;;5043011;28;20037;-76
2023/05/02 12:36:24;;;;;;;5.05;0.90;;;;;;;;;;5049694;28;20033;-76
2023/05/02 12:38:53;;;;;;;5.38;1.38;;;;;;;;;;5046104;28;21036;-77
2023/05/02 12:41:29;;;;;;;2.55;0.85;;;;;;;;;;5050557;28;20029;-77
2023/05/02 12:43:57;;;;;;;4.25;1.35;;;;;;;;;;5049131;28;20059;-77
2023/05/02 12:46:23;;;;;;;6.40;1.00;;;;;;;;;;5043792;28;20060;-77
2023/05/02 12:49:00;;;;;;;3.15;0.68;;;;;;;;;;5046477;28;20762;-76
2023/05/02 12:51:27;;;;;;;3.55;0.98;;;;;;;;;;5050213;28;20056;-76
2023/05/02 12:53:53;;;;;;;7.63;0.80;;;;;;;;;;5048363;28;20040;-76
2023/05/02 12:56:19;;;;;;;4.30;0.80;;;;;;;;;;5048620;28;20049;-77
2023/05/02 12:58:48;;;;;;;6.90;1.40;;;;;;;;;;5047189;28;20029;-76
2023/05/02 13:01:14;;;;;;;5.57;1.02;;;;;;;;;;5031255;28;20033;-76
2023/05/02 13:03:41;;;;;;;6.50;1.25;;;;;;;;;;5048126;28;20047;-76
2023/05/02 13:06:07;;;;;;;5.68;1.02;;;;;;;;;;5047064;28;20036;-77
2023/05/02 13:08:35;;;;;;;3.88;1.00;;;;;;;;;;5047207;28;20094;-76
2023/05/02 13:11:04;;;;;;;6.30;1.20;;;;;;;;;;5039058;28;20052;-77
2023/05/02 13:13:31;;;;;;;3.17;1.20;;;;;;;;;;5038135;28;20096;-75
2023/05/02 13:15:57;;;;;;;8.75;1.67;;;;;;;;;;5047710;28;20071;-78
2023/05/02 13:18:23;;;;;;;7.63;1.17;;;;;;;;;;5049691;28;20139;-75
2023/05/02 13:20:58;;;;;;;4.40;1.00;;;;;;;;;;5043445;28;20440;-75
2023/05/02 13:23:24;;;;;;;7.93;0.88;;;;;;;;;;5047076;28;20537;-75
2023/05/02 13:25:50;;;;;;;4.25;0.70;;;;;;;;;;5049341;28;20175;-75
2023/05/02 13:28:16;;;;;;;4.72;0.55;;;;;;;;;;5048752;28;20043;-75
2023/05/02 13:30:42;;;;;;;4.28;0.88;;;;;;;;;;5046006;28;20414;-78
2023/05/02 13:33:08;;;;;;;5.95;0.90;;;;;;;;;;5047098;28;20029;-76
2023/05/02 13:35:34;;;;;;;3.78;0.93;;;;;;;;;;5049098;28;20260;-75
2023/05/02 13:38:02;;;;;;;3.92;0.70;;;;;;;;;;5049182;28;20021;-76
2023/05/02 13:40:29;;;;;;;2.67;0.75;;;;;;;;;;5036004;28;20026;-75
2023/05/02 13:42:55;;;;;;;2.67;0.80;;;;;;;;;;5048375;28;20525;-78
2023/05/02 13:45:21;;;;;;;4.43;1.50;;;;;;;;;;5046303;28;20094;-78
2023/05/02 13:47:47;;;;;;;4.15;1.05;;;;;;;;;;5048546;28;20091;-78
2023/05/02 13:50:13;;;;;;;6.18;1.05;;;;;;;;;;5047544;28;20033;-76
2023/05/02 13:52:39;;;;;;;5.78;0.90;;;;;;;;;;5046847;28;20616;-75
2023/05/02 13:55:05;;;;;;;1.58;0.68;;;;;;;;;;5048716;28;20029;-76
2023/05/02 13:57:31;;;;;;;4.47;0.85;;;;;;;;;;5046630;28;20029;-79
2023/05/02 13:59:58;;;;;;;8.25;0.80;;;;;;;;;;5040194;28;20056;-78
2023/05/02 14:02:25;;;;;;;5.63;1.42;;;;;;;;;;5047219;28;20040;-76
2023/05/02 14:04:51;;;;;;;3.70;0.40;;;;;;;;;;5038428;28;20473;-76
2023/05/02 14:07:17;;;;;;;3.03;1.00;;;;;;;;;;5046314;28;20041;-76
2023/05/02 14:09:43;;;;;;;4.22;0.50;;;;;;;;;;5048109;28;20041;-76
2023/05/02 14:12:09;;;;;;;2.05;0.60;;;;;;;;;;5047359;28;20052;-77
2023/05/02 14:14:37;;;;;;;1.58;0.57;;;;;;;;;;5047411;28;20033;-76
2023/05/02 14:17:04;;;;;;;2.47;0.47;;;;;;;;;;5045612;28;20848;-76
2023/05/02 14:19:33;;;;;;;3.50;0.57;;;;;;;;;;5045388;28;20033;-75
2023/05/02 14:22:00;;;;;;;3.13;0.73;;;;;;;;;;5045558;28;20047;-76
2023/05/02 14:24:26;;;;;;;4.32;0.80;;;;;;;;;;5050819;28;20281;-75
2023/05/02 14:26:52;;;;;;;1.83;0.75;;;;;;;;;;5052076;28;20150;-76
2023/05/02 14:29:19;;;;;;;2.95;0.60;;;;;;;;;;5049941;28;20055;-76
2023/05/02 14:31:46;;;;;;;4.70;0.40;;;;;;;;;;5051776;28;20134;-75
2023/05/02 14:34:12;;;;;;;0.88;0.30;;;;;;;;;;5049306;28;20059;-75
2023/05/02 14:36:38;;;;;;;1.50;0.40;;;;;;;;;;5050172;28;20422;-75
2023/05/02 14:39:04;;;;;;;3.97;0.75;;;;;;;;;;5047483;28;20114;-76
2023/05/02 14:41:30;;;;;;;2.92;0.43;;;;;;;;;;5051206;28;20064;-75
2023/05/02 14:43:56;;;;;;;3.08;0.80;;;;;;;;;;5050633;28;20037;-75